Time;durP1;ratioP1;P1;durP2;ratioP2;P2;SDS_P1;SDS_P2;PMS_P1;PMS_P2;Temp;Humidity;BMP_temperature;BMP_pressure;BME280_temperature;BME280_humidity;BME280_pressure;Samples;Min_cycle;Max_cycle;Signal;HPM_P1;HPM_P2
2021/12/28 10:13:21;;;;;;;14.83;9.23;;;;;;;;;;4795020;24;20253;-90
2021/12/28 10:20:45;;;;;;;13.43;8.13;;;;;;;;;;4763087;30;20186;-93
2021/12/28 10:34:55;;;;;;;9.53;7.23;;;;;;;;;;4773391;30;20222;-93
2021/12/28 10:44:50;;;;;;;12.43;7.37;;;;;;;;;;4735994;30;20232;-89
2021/12/28 10:47:55;;;;;;;16.07;7.07;;;;;;;;;;4725194;30;20223;-90
2021/12/28 10:51:08;;;;;;;9.97;6.70;;;;;;;;;;4732813;30;20211;-89
2021/12/28 10:54:12;;;;;;;10.67;6.30;;;;;;;;;;4733270;30;20227;-91
2021/12/28 10:57:21;;;;;;;8.23;5.20;;;;;;;;;;4742701;30;20183;-90
2021/12/28 11:00:33;;;;;;;10.17;5.30;;;;;;;;;;4742671;30;20191;-91
2021/12/28 11:03:48;;;;;;;7.93;5.50;;;;;;;;;;4732344;30;20222;-92
2021/12/28 11:06:52;;;;;;;7.33;5.37;;;;;;;;;;4732424;30;20215;-91
2021/12/28 11:10:01;;;;;;;8.03;5.30;;;;;;;;;;4741532;30;20219;-91
2021/12/28 12:36:34;;;;;;;6.87;3.13;;;;;;;;;;4770322;30;20178;-86
2021/12/28 12:39:38;;;;;;;6.37;2.60;;;;;;;;;;4749745;30;20190;-85
2021/12/28 12:42:43;;;;;;;3.87;2.73;;;;;;;;;;4749846;30;20221;-86
2021/12/28 12:45:50;;;;;;;4.17;2.60;;;;;;;;;;4759769;30;20190;-86
2021/12/28 12:49:50;;;;;;;5.17;2.80;;;;;;;;;;4749812;30;20217;-90
2021/12/28 12:53:54;;;;;;;2.17;1.90;;;;;;;;;;4749527;30;20218;-91
2021/12/28 12:57:07;;;;;;;2.80;1.90;;;;;;;;;;4749922;30;20186;-86
2021/12/28 13:00:15;;;;;;;3.77;1.80;;;;;;;;;;4737682;30;20202;-85
2021/12/28 13:03:32;;;;;;;2.83;1.83;;;;;;;;;;4750976;30;20225;-85
2021/12/28 13:06:39;;;;;;;3.93;2.57;;;;;;;;;;4760456;30;20194;-87
2021/12/28 13:09:55;;;;;;;3.27;2.00;;;;;;;;;;4749608;30;20210;-86
2021/12/28 13:12:59;;;;;;;2.77;1.70;;;;;;;;;;4761159;30;20692;-86
2021/12/28 13:16:07;;;;;;;4.40;1.77;;;;;;;;;;4750082;30;20214;-86
2021/12/28 13:19:15;;;;;;;3.60;1.80;;;;;;;;;;4771051;30;20643;-85
2021/12/28 13:22:19;;;;;;;4.17;1.77;;;;;;;;;;4760674;30;20195;-86
2021/12/28 13:25:26;;;;;;;3.20;1.67;;;;;;;;;;4760708;30;20547;-86
2021/12/28 13:28:30;;;;;;;1.97;1.60;;;;;;;;;;4759381;30;20234;-86
2021/12/28 13:31:34;;;;;;;3.63;1.70;;;;;;;;;;4760308;30;20194;-85
2021/12/28 13:35:09;;;;;;;2.37;1.90;;;;;;;;;;4762186;30;20221;-86
2021/12/28 13:38:16;;;;;;;1.33;1.10;;;;;;;;;;4773309;30;20183;-86
2021/12/28 13:41:20;;;;;;;4.20;1.53;;;;;;;;;;4763689;30;20191;-86
2021/12/28 13:44:24;;;;;;;3.00;1.47;;;;;;;;;;4762741;30;20222;-86
2021/12/28 13:47:28;;;;;;;2.00;1.37;;;;;;;;;;4773342;30;20222;-85
2021/12/28 13:50:33;;;;;;;4.27;1.40;;;;;;;;;;4763037;30;20196;-86
2021/12/28 13:53:41;;;;;;;3.63;1.40;;;;;;;;;;4752303;30;20593;-85
2021/12/28 13:56:48;;;;;;;1.50;1.20;;;;;;;;;;4763318;30;20561;-85
2021/12/28 13:59:56;;;;;;;1.93;1.37;;;;;;;;;;4752949;30;20186;-85
2021/12/28 14:03:04;;;;;;;1.87;1.00;;;;;;;;;;4763040;30;20226;-86
2021/12/28 14:06:09;;;;;;;1.53;1.37;;;;;;;;;;4752983;30;20186;-86
2021/12/28 14:09:15;;;;;;;1.23;1.10;;;;;;;;;;4762111;30;20218;-86
2021/12/28 14:12:19;;;;;;;3.20;1.10;;;;;;;;;;4762719;30;20187;-86
2021/12/28 14:15:23;;;;;;;2.07;1.13;;;;;;;;;;4772582;30;20186;-85
2021/12/28 14:18:30;;;;;;;2.83;1.20;;;;;;;;;;4752214;30;20202;-86
2021/12/28 14:21:34;;;;;;;2.57;1.00;;;;;;;;;;4762626;30;20210;-86
2021/12/28 14:24:42;;;;;;;1.50;1.13;;;;;;;;;;4763553;30;20226;-86
2021/12/28 14:27:55;;;;;;;1.80;1.20;;;;;;;;;;4762346;30;20242;-86
2021/12/28 14:31:10;;;;;;;2.33;1.13;;;;;;;;;;4764115;30;20190;-85
2021/12/28 14:34:28;;;;;;;1.13;1.00;;;;;;;;;;4761907;30;20226;-86
2021/12/28 14:37:38;;;;;;;1.10;0.80;;;;;;;;;;4761812;30;20203;-86
2021/12/28 14:40:42;;;;;;;1.83;1.30;;;;;;;;;;4751725;30;20182;-87
2021/12/28 14:43:47;;;;;;;3.03;1.30;;;;;;;;;;4761907;30;20574;-86
2021/12/28 14:46:53;;;;;;;1.50;1.10;;;;;;;;;;4763191;30;20194;-86
2021/12/28 14:50:08;;;;;;;6.57;5.80;;;;;;;;;;4772364;30;20534;-86
2021/12/28 14:53:19;;;;;;;2.67;1.30;;;;;;;;;;4751623;30;20230;-86
2021/12/28 14:56:30;;;;;;;1.47;1.10;;;;;;;;;;4772270;30;20206;-85
2021/12/28 14:59:37;;;;;;;2.77;1.10;;;;;;;;;;4773002;30;20202;-86
2021/12/28 15:02:58;;;;;;;2.03;1.00;;;;;;;;;;4762045;30;20226;-86
2021/12/28 15:06:05;;;;;;;1.60;1.30;;;;;;;;;;4762049;30;20190;-85
2021/12/28 15:09:09;;;;;;;1.30;1.17;;;;;;;;;;4761404;30;20221;-87
2021/12/28 15:38:54;;;;;;;1.50;1.40;;;;;;;;;;4756448;30;20203;-90
2021/12/28 15:42:02;;;;;;;2.20;1.40;;;;;;;;;;4750680;30;20218;-91
2021/12/28 15:55:47;;;;;;;18.67;11.10;;;;;;;;;;4741208;30;20711;-89
2021/12/28 15:58:55;;;;;;;2.73;2.33;;;;;;;;;;4732455;30;20195;-88
2021/12/28 16:18:24;;;;;;;8.90;5.67;;;;;;;;;;4716060;30;20209;-90
2021/12/28 16:22:49;;;;;;;7.47;2.87;;;;;;;;;;4708848;30;20208;-90
2021/12/28 16:26:02;;;;;;;5.13;4.57;;;;;;;;;;4749441;30;20214;-90
2021/12/28 16:39:04;;;;;;;3.60;2.93;;;;;;;;;;4742126;30;20215;-90
2021/12/28 16:51:45;;;;;;;6.03;3.47;;;;;;;;;;4707342;30;20569;-91
2021/12/28 16:55:17;;;;;;;5.87;4.67;;;;;;;;;;4705527;30;20234;-90
2021/12/28 17:12:41;;;;;;;1.00;0.80;;;;;;;;;;4761421;30;20199;-90
2021/12/28 17:15:52;;;;;;;2.43;1.40;;;;;;;;;;4744446;30;20624;-90
2021/12/28 17:20:37;;;;;;;1.87;0.93;;;;;;;;;;4755872;30;20202;-90
2021/12/28 17:25:42;;;;;;;1.60;1.30;;;;;;;;;;4755624;30;20711;-90
2021/12/28 17:28:53;;;;;;;1.50;0.80;;;;;;;;;;4735450;30;20695;-90
2021/12/28 17:31:57;;;;;;;3.73;3.17;;;;;;;;;;4734713;30;20540;-87
2021/12/28 17:35:02;;;;;;;1.77;0.63;;;;;;;;;;4747489;30;20230;-90
2021/12/28 17:38:32;;;;;;;0.50;0.50;;;;;;;;;;4734812;30;20183;-90
2021/12/28 17:41:40;;;;;;;1.70;0.73;;;;;;;;;;4744269;30;20206;-90
2021/12/28 17:44:44;;;;;;;1.40;0.73;;;;;;;;;;4754545;30;20230;-89
2021/12/28 17:47:48;;;;;;;1.37;0.80;;;;;;;;;;4734388;30;20643;-89
2021/12/28 17:50:52;;;;;;;2.63;0.70;;;;;;;;;;4754622;30;20198;-87
2021/12/28 17:53:56;;;;;;;1.40;0.70;;;;;;;;;;4734046;30;20242;-86
2021/12/28 17:57:02;;;;;;;1.90;0.70;;;;;;;;;;4724006;30;20203;-87
2021/12/28 18:00:08;;;;;;;1.13;0.50;;;;;;;;;;4744122;30;20535;-87
2021/12/28 18:03:22;;;;;;;3.03;0.60;;;;;;;;;;4744009;30;20199;-87
2021/12/28 18:06:27;;;;;;;10.13;6.83;;;;;;;;;;4734097;30;20206;-89
2021/12/28 18:09:31;;;;;;;4.20;3.20;;;;;;;;;;4726697;30;20218;-89
2021/12/28 18:12:35;;;;;;;2.67;1.10;;;;;;;;;;4744351;30;20191;-89
2021/12/28 18:15:39;;;;;;;3.83;3.10;;;;;;;;;;4744037;30;20194;-90
2021/12/28 18:18:44;;;;;;;3.53;2.00;;;;;;;;;;4733002;30;20195;-90
2021/12/28 18:21:52;;;;;;;6.17;1.70;;;;;;;;;;4753858;30;20589;-90
2021/12/28 18:24:56;;;;;;;3.27;1.70;;;;;;;;;;4733772;30;20223;-90
2021/12/28 18:28:00;;;;;;;3.70;1.20;;;;;;;;;;4743953;30;20640;-87
2021/12/28 18:31:04;;;;;;;3.30;1.40;;;;;;;;;;4733584;30;20199;-87
2021/12/28 18:34:08;;;;;;;2.53;0.90;;;;;;;;;;4734116;30;20238;-88
2021/12/28 18:37:13;;;;;;;3.57;1.07;;;;;;;;;;4723374;30;20659;-88
2021/12/28 18:40:18;;;;;;;7.90;1.13;;;;;;;;;;4754174;30;20203;-88
2021/12/28 18:43:23;;;;;;;2.70;0.67;;;;;;;;;;4743549;30;20239;-87
2021/12/28 18:46:28;;;;;;;4.57;1.00;;;;;;;;;;4753622;30;20206;-88
2021/12/28 18:49:32;;;;;;;2.77;1.20;;;;;;;;;;4723261;30;20227;-87
2021/12/28 18:52:36;;;;;;;2.50;0.90;;;;;;;;;;4743427;30;20567;-88
2021/12/28 18:55:47;;;;;;;1.43;0.60;;;;;;;;;;4753419;30;20207;-88
2021/12/28 18:58:53;;;;;;;4.87;0.90;;;;;;;;;;4723399;30;20555;-88
2021/12/28 19:01:59;;;;;;;4.80;0.83;;;;;;;;;;4753795;30;20187;-88
2021/12/28 19:05:03;;;;;;;5.27;0.97;;;;;;;;;;4732680;30;20595;-88
2021/12/28 19:08:08;;;;;;;3.10;0.80;;;;;;;;;;4712207;30;20196;-88
2021/12/28 19:11:12;;;;;;;1.87;1.10;;;;;;;;;;4743227;30;20191;-88
2021/12/28 19:14:17;;;;;;;4.57;1.97;;;;;;;;;;4743116;30;20560;-87
2021/12/28 19:17:20;;;;;;;3.13;1.53;;;;;;;;;;4732749;30;20651;-88
2021/12/28 19:20:26;;;;;;;4.60;1.40;;;;;;;;;;4725433;30;20576;-88
2021/12/28 19:23:30;;;;;;;7.60;2.30;;;;;;;;;;4738267;30;20226;-88
2021/12/28 19:26:35;;;;;;;2.93;1.37;;;;;;;;;;4715366;30;20187;-88
2021/12/28 19:29:39;;;;;;;3.47;1.73;;;;;;;;;;4735817;30;20227;-88
2021/12/28 19:32:43;;;;;;;3.30;1.57;;;;;;;;;;4724744;30;20196;-88
2021/12/28 19:35:48;;;;;;;2.77;1.07;;;;;;;;;;4726955;30;20187;-88
2021/12/28 19:38:54;;;;;;;12.77;3.00;;;;;;;;;;4742741;30;20187;-88
2021/12/28 19:41:59;;;;;;;7.07;2.83;;;;;;;;;;4752405;30;20194;-89
2021/12/28 19:45:06;;;;;;;7.70;3.23;;;;;;;;;;4729764;30;20231;-89
2021/12/28 19:48:10;;;;;;;3.63;1.97;;;;;;;;;;4735055;30;20192;-89
2021/12/28 19:51:16;;;;;;;2.13;1.50;;;;;;;;;;4735164;30;20188;-89
2021/12/28 19:54:20;;;;;;;2.93;1.80;;;;;;;;;;4738143;30;20226;-89
2021/12/28 19:57:30;;;;;;;3.70;2.53;;;;;;;;;;4742612;30;20199;-87
2021/12/28 20:00:34;;;;;;;4.47;1.90;;;;;;;;;;4742251;30;20203;-88
2021/12/28 20:03:39;;;;;;;4.30;1.87;;;;;;;;;;4742349;30;20227;-90
2021/12/28 20:06:43;;;;;;;5.37;2.83;;;;;;;;;;4753208;30;20187;-87
2021/12/28 20:09:48;;;;;;;2.90;1.60;;;;;;;;;;4732118;30;20236;-87
2021/12/28 20:12:52;;;;;;;7.50;2.80;;;;;;;;;;4717966;30;20211;-90
2021/12/28 20:15:58;;;;;;;5.20;2.27;;;;;;;;;;4752401;30;20207;-90
2021/12/28 20:19:04;;;;;;;10.77;7.07;;;;;;;;;;4742004;30;20199;-87
2021/12/28 20:22:08;;;;;;;5.03;1.53;;;;;;;;;;4731617;30;20195;-90
2021/12/28 20:25:16;;;;;;;11.73;3.90;;;;;;;;;;4741521;30;20234;-90
2021/12/28 20:28:21;;;;;;;21.17;11.43;;;;;;;;;;4734512;30;20207;-87
2021/12/28 20:31:25;;;;;;;17.77;8.87;;;;;;;;;;4741652;30;20207;-87
2021/12/28 20:34:29;;;;;;;14.10;6.03;;;;;;;;;;4730185;30;20234;-88
2021/12/28 20:37:33;;;;;;;18.20;8.43;;;;;;;;;;4727722;30;20203;-87
2021/12/28 20:40:37;;;;;;;9.83;4.70;;;;;;;;;;4741260;30;20199;-89
2021/12/28 20:43:42;;;;;;;21.53;10.20;;;;;;;;;;4721199;30;20230;-90
2021/12/28 20:46:46;;;;;;;8.80;3.90;;;;;;;;;;4741711;30;20187;-87
2021/12/28 20:49:50;;;;;;;5.60;1.73;;;;;;;;;;4721565;30;20234;-84
2021/12/28 20:53:50;;;;;;;8.83;2.30;;;;;;;;;;4738862;30;20214;-90
2021/12/28 20:57:15;;;;;;;5.87;1.20;;;;;;;;;;4731374;30;20200;-86
2021/12/28 21:04:14;;;;;;;2.60;1.00;;;;;;;;;;4751035;30;20587;-86
2021/12/28 21:07:19;;;;;;;4.83;1.60;;;;;;;;;;4751492;30;20206;-89
2021/12/28 21:10:41;;;;;;;5.63;1.90;;;;;;;;;;4751843;30;20215;-89
2021/12/28 21:13:53;;;;;;;3.33;1.10;;;;;;;;;;4741588;30;20231;-86
2021/12/28 21:17:33;;;;;;;3.70;1.10;;;;;;;;;;4751565;30;20544;-91
2021/12/28 21:24:58;;;;;;;3.13;1.33;;;;;;;;;;4751624;30;20234;-90
2021/12/28 21:28:36;;;;;;;4.83;1.53;;;;;;;;;;4734337;30;20196;-89
2021/12/28 21:31:43;;;;;;;5.53;1.27;;;;;;;;;;4743965;30;20195;-86
2021/12/28 21:34:50;;;;;;;3.57;0.90;;;;;;;;;;4750866;30;20730;-87
2021/12/28 21:37:59;;;;;;;3.27;1.10;;;;;;;;;;4731371;30;20544;-89
2021/12/28 21:41:33;;;;;;;5.23;1.73;;;;;;;;;;4741798;30;20183;-89
2021/12/28 21:44:46;;;;;;;1.17;0.70;;;;;;;;;;4805613;24;20246;-91
2021/12/28 21:47:52;;;;;;;4.73;0.83;;;;;;;;;;4741382;30;20187;-91
2021/12/28 21:50:56;;;;;;;2.60;0.83;;;;;;;;;;4731772;30;20574;-91
2021/12/28 21:54:01;;;;;;;3.57;0.90;;;;;;;;;;4741636;30;20223;-91
2021/12/28 21:57:07;;;;;;;1.53;0.70;;;;;;;;;;4742047;30;20198;-91
2021/12/28 22:00:15;;;;;;;2.10;1.13;;;;;;;;;;4744781;30;20191;-91
2021/12/28 22:03:20;;;;;;;2.97;0.70;;;;;;;;;;4754933;30;20191;-92
2021/12/28 22:06:25;;;;;;;1.87;0.80;;;;;;;;;;4756882;30;20198;-91
2021/12/28 22:09:29;;;;;;;1.97;0.70;;;;;;;;;;4751899;30;20220;-91
2021/12/28 22:12:33;;;;;;;2.57;0.83;;;;;;;;;;4751825;30;20670;-92
2021/12/28 22:20:34;;;;;;;0.70;0.60;;;;;;;;;;4716314;30;20215;-91
